Time;durP1;ratioP1;P1;durP2;ratioP2;P2;SDS_P1;SDS_P2;PMS_P1;PMS_P2;Temp;Humidity;BMP_temperature;BMP_pressure;BME280_temperature;BME280_humidity;BME280_pressure;Samples;Min_cycle;Max_cycle;Signal;HPM_P1;HPM_P2
2020/12/30 00:02:22;;;;;;;17.50;16.45;;;4.00;90.10;;;;;;5072921;28;20285;-77
2020/12/30 00:04:49;;;;;;;18.45;17.20;;;4.00;89.90;;;;;;5072968;28;20202;-77
2020/12/30 00:07:16;;;;;;;16.80;15.98;;;4.10;88.90;;;;;;5073040;28;20685;-77
2020/12/30 00:09:42;;;;;;;17.58;16.52;;;4.10;88.80;;;;;;5073157;28;20332;-77
2020/12/30 00:12:08;;;;;;;17.48;16.45;;;4.10;88.30;;;;;;5073102;28;20192;-77
2020/12/30 00:14:35;;;;;;;19.13;17.77;;;4.10;88.80;;;;;;5073020;28;20574;-77
2020/12/30 00:17:03;;;;;;;17.85;16.85;;;4.00;89.10;;;;;;5072731;28;20219;-77
2020/12/30 00:19:29;;;;;;;238.48;37.63;;;4.00;88.40;;;;;;5072686;28;20218;-77
2020/12/30 00:21:57;;;;;;;16.67;15.57;;;3.90;91.50;;;;;;5072891;28;20217;-77
2020/12/30 00:24:23;;;;;;;16.10;15.20;;;3.80;93.00;;;;;;5072895;28;20565;-77
2020/12/30 00:26:49;;;;;;;16.80;15.90;;;3.80;91.90;;;;;;5072765;28;20219;-77
2020/12/30 00:29:16;;;;;;;18.10;16.95;;;3.90;90.80;;;;;;5072500;28;20189;-77
2020/12/30 00:31:42;;;;;;;16.90;16.08;;;4.00;90.50;;;;;;5072568;28;20209;-77
2020/12/30 00:34:08;;;;;;;16.52;15.73;;;3.90;89.10;;;;;;5072708;28;20673;-77
2020/12/30 00:36:38;;;;;;;17.92;16.92;;;3.90;88.80;;;;;;5072345;28;20216;-77
2020/12/30 00:39:05;;;;;;;16.83;15.93;;;3.90;88.60;;;;;;5072492;28;20196;-77
2020/12/30 00:41:31;;;;;;;18.40;17.05;;;3.90;88.70;;;;;;5072808;28;20196;-77
2020/12/30 00:43:58;;;;;;;16.73;15.82;;;3.90;89.90;;;;;;5072266;28;20196;-77
2020/12/30 00:46:24;;;;;;;17.10;16.20;;;4.00;89.00;;;;;;5072327;28;20222;-77
2020/12/30 00:48:50;;;;;;;17.35;16.45;;;4.00;88.40;;;;;;5072170;28;20184;-77
2020/12/30 00:51:17;;;;;;;17.95;16.85;;;4.00;89.00;;;;;;5072313;28;20245;-77
2020/12/30 00:53:44;;;;;;;15.95;15.10;;;3.90;89.80;;;;;;5073818;28;20192;-77
2020/12/30 00:56:11;;;;;;;17.50;16.25;;;3.90;93.60;;;;;;5073827;28;20226;-77
2020/12/30 00:58:38;;;;;;;20.08;17.48;;;3.80;91.40;;;;;;5072629;28;20195;-77
2020/12/30 01:01:07;;;;;;;17.02;16.02;;;3.70;90.70;;;;;;5072576;28;20573;-77
2020/12/30 01:03:33;;;;;;;277.50;44.10;;;3.80;90.60;;;;;;5072512;28;20557;-77
2020/12/30 01:06:00;;;;;;;16.88;15.98;;;3.90;90.70;;;;;;5075553;28;20204;-77
2020/12/30 01:08:26;;;;;;;16.90;15.80;;;3.80;91.30;;;;;;5076335;28;20195;-77
2020/12/30 01:10:53;;;;;;;16.75;15.90;;;3.90;89.90;;;;;;5076434;28;20199;-77
2020/12/30 01:13:20;;;;;;;16.73;15.82;;;3.80;89.40;;;;;;5076273;28;20566;-77
2020/12/30 01:15:46;;;;;;;16.52;15.63;;;3.90;88.60;;;;;;5075643;28;20215;-77
2020/12/30 01:18:13;;;;;;;17.15;16.05;;;4.00;87.50;;;;;;5077721;28;20206;-77
2020/12/30 01:20:40;;;;;;;17.35;16.45;;;4.10;86.80;;;;;;5076393;28;20192;-77
2020/12/30 01:23:06;;;;;;;17.70;16.90;;;4.10;86.40;;;;;;5076411;28;20681;-77
2020/12/30 01:25:33;;;;;;;17.65;16.65;;;4.10;86.20;;;;;;5075785;28;20212;-77
2020/12/30 01:27:59;;;;;;;17.08;16.13;;;4.10;86.10;;;;;;5076134;28;20669;-77
2020/12/30 01:30:26;;;;;;;16.58;15.68;;;4.20;85.70;;;;;;5075800;28;20226;-77
2020/12/30 01:32:52;;;;;;;16.50;15.60;;;4.10;85.90;;;;;;5076010;28;20196;-77
2020/12/30 01:35:19;;;;;;;59.05;19.67;;;4.10;86.20;;;;;;5075537;28;20218;-77
2020/12/30 01:37:45;;;;;;;16.60;15.80;;;4.10;88.20;;;;;;5075738;28;20281;-77
2020/12/30 01:40:11;;;;;;;17.00;16.20;;;4.10;87.40;;;;;;5075844;28;20200;-77
2020/12/30 01:42:44;;;;;;;16.85;16.05;;;4.10;87.30;;;;;;5075654;28;20192;-77
2020/12/30 01:45:10;;;;;;;16.85;15.95;;;4.10;87.20;;;;;;5075410;28;20600;-77
2020/12/30 01:47:37;;;;;;;16.58;15.65;;;4.10;86.30;;;;;;5075563;28;20211;-77
2020/12/30 01:50:06;;;;;;;17.45;16.40;;;4.10;86.50;;;;;;5074616;28;20198;-77
2020/12/30 01:52:32;;;;;;;17.10;16.20;;;4.10;86.40;;;;;;5075682;28;20200;-77
2020/12/30 01:54:59;;;;;;;16.35;15.55;;;4.10;86.20;;;;;;5075429;28;20227;-77
2020/12/30 01:57:26;;;;;;;16.67;15.70;;;4.20;86.30;;;;;;5075486;28;20216;-77
2020/12/30 01:59:54;;;;;;;17.38;16.58;;;4.20;85.70;;;;;;5074922;28;20199;-77
2020/12/30 02:02:25;;;;;;;18.02;17.13;;;4.20;85.50;;;;;;5075028;28;20204;-77
2020/12/30 02:04:54;;;;;;;18.10;17.20;;;4.20;85.40;;;;;;5075446;28;20192;-78
2020/12/30 02:07:23;;;;;;;18.25;17.02;;;4.20;85.20;;;;;;5075491;28;20216;-77
2020/12/30 02:09:50;;;;;;;17.00;16.10;;;4.30;85.00;;;;;;5075370;28;20195;-77
2020/12/30 02:12:17;;;;;;;17.95;17.05;;;4.30;84.80;;;;;;5075082;28;20194;-77
2020/12/30 02:14:44;;;;;;;16.70;15.90;;;4.40;84.50;;;;;;5075250;28;20219;-77
2020/12/30 02:17:12;;;;;;;16.55;15.70;;;4.40;84.30;;;;;;5074291;28;20274;-77
2020/12/30 02:19:39;;;;;;;16.85;16.05;;;4.50;83.90;;;;;;5075283;28;20204;-77
2020/12/30 02:22:08;;;;;;;16.83;15.93;;;4.50;83.90;;;;;;5074884;28;20199;-77
2020/12/30 02:24:36;;;;;;;16.95;16.15;;;4.60;84.00;;;;;;5075162;28;20725;-77
2020/12/30 02:27:04;;;;;;;16.30;15.50;;;4.60;84.50;;;;;;5074489;28;20220;-77
2020/12/30 02:29:31;;;;;;;16.15;15.35;;;4.60;83.90;;;;;;5074964;28;20221;-77
2020/12/30 02:31:58;;;;;;;16.70;15.80;;;4.50;85.10;;;;;;5074818;28;20208;-77
2020/12/30 02:34:25;;;;;;;16.98;15.93;;;4.50;84.40;;;;;;5074929;28;20195;-77
2020/12/30 02:36:52;;;;;;;17.17;16.27;;;4.60;84.20;;;;;;5074798;28;20223;-77
2020/12/30 02:39:19;;;;;;;17.17;16.20;;;4.60;83.80;;;;;;5054872;28;20197;-77
2020/12/30 02:41:46;;;;;;;16.77;15.98;;;4.50;84.00;;;;;;5063263;28;20192;-77
2020/12/30 02:44:13;;;;;;;17.00;16.20;;;4.50;84.20;;;;;;5074300;28;20188;-77
2020/12/30 02:46:39;;;;;;;15.80;15.10;;;4.50;84.20;;;;;;5074647;28;20227;-77
2020/12/30 02:49:06;;;;;;;15.90;15.10;;;4.50;83.90;;;;;;5075710;28;20199;-77
2020/12/30 02:51:32;;;;;;;16.08;15.27;;;4.50;83.80;;;;;;5075979;28;20184;-77
2020/12/30 02:53:58;;;;;;;16.13;15.23;;;4.50;84.00;;;;;;5074701;28;20271;-77
2020/12/30 02:56:25;;;;;;;16.67;15.80;;;4.60;83.90;;;;;;5074087;28;20681;-77
2020/12/30 02:58:52;;;;;;;16.20;15.40;;;4.60;84.00;;;;;;5074528;28;20195;-77
2020/12/30 03:01:18;;;;;;;16.10;15.30;;;4.60;84.10;;;;;;5074149;28;20216;-77
2020/12/30 03:03:45;;;;;;;16.35;15.55;;;4.60;83.90;;;;;;5074527;28;20198;-77
2020/12/30 03:06:11;;;;;;;16.48;15.60;;;4.50;84.30;;;;;;5074202;28;20219;-77
2020/12/30 03:08:38;;;;;;;15.98;15.27;;;4.50;84.50;;;;;;5074379;28;20192;-77
2020/12/30 03:11:05;;;;;;;16.48;15.68;;;4.40;85.40;;;;;;5073850;28;20244;-77
2020/12/30 03:13:32;;;;;;;16.55;15.75;;;4.50;85.40;;;;;;5073839;28;20200;-77
2020/12/30 03:16:00;;;;;;;16.08;15.25;;;4.50;85.10;;;;;;5073690;28;20211;-77
2020/12/30 03:18:26;;;;;;;16.75;15.88;;;4.60;84.40;;;;;;5074051;28;20192;-77
2020/12/30 03:20:52;;;;;;;17.63;16.65;;;4.60;84.10;;;;;;5073665;28;20200;-77
2020/12/30 03:23:19;;;;;;;18.17;17.27;;;4.60;84.00;;;;;;5073649;28;20196;-77
2020/12/30 03:25:45;;;;;;;16.73;15.93;;;4.60;84.00;;;;;;5073732;28;20208;-77
2020/12/30 03:28:11;;;;;;;16.75;15.95;;;4.60;84.70;;;;;;5073934;28;20207;-77
2020/12/30 03:30:38;;;;;;;16.73;15.68;;;4.50;84.30;;;;;;5073619;28;20213;-77
2020/12/30 03:33:05;;;;;;;16.17;15.38;;;4.50;84.10;;;;;;5073549;28;20205;-77
2020/12/30 03:35:32;;;;;;;18.02;17.13;;;4.60;84.70;;;;;;5073353;28;20310;-77
2020/12/30 03:37:58;;;;;;;17.35;16.35;;;4.60;84.00;;;;;;5073631;28;20203;-77
2020/12/30 03:40:24;;;;;;;17.10;16.23;;;4.60;84.20;;;;;;5073697;28;20265;-77
2020/12/30 03:42:51;;;;;;;15.70;15.00;;;4.60;84.10;;;;;;5073558;28;20195;-77
2020/12/30 03:45:17;;;;;;;16.67;15.88;;;4.50;85.50;;;;;;5073281;28;20283;-77
2020/12/30 03:47:44;;;;;;;17.10;16.20;;;4.50;85.50;;;;;;5073414;28;20265;-77
2020/12/30 03:50:11;;;;;;;17.25;16.35;;;4.40;85.90;;;;;;5072936;28;20658;-77
2020/12/30 03:52:37;;;;;;;17.35;16.20;;;4.30;86.40;;;;;;5073416;28;20200;-77
2020/12/30 03:55:04;;;;;;;18.13;17.23;;;4.20;87.30;;;;;;5073411;28;20222;-77
2020/12/30 03:57:30;;;;;;;17.35;16.55;;;4.20;87.00;;;;;;5072993;28;20216;-77
2020/12/30 03:59:57;;;;;;;17.05;16.15;;;4.10;86.50;;;;;;5072865;28;20550;-77
2020/12/30 04:02:23;;;;;;;17.55;16.50;;;4.00;86.90;;;;;;5073296;28;20207;-77
2020/12/30 04:04:49;;;;;;;17.15;16.25;;;3.90;86.90;;;;;;5073097;28;20206;-77
2020/12/30 04:07:17;;;;;;;17.88;16.98;;;3.90;87.20;;;;;;5072741;28;20212;-77
2020/12/30 04:09:43;;;;;;;191.50;32.17;;;3.90;87.10;;;;;;5073259;28;20249;-77
2020/12/30 04:12:09;;;;;;;17.80;16.70;;;3.90;88.30;;;;;;5073142;28;20294;-77
2020/12/30 04:14:36;;;;;;;17.15;16.25;;;3.80;89.00;;;;;;5073129;28;20199;-77
2020/12/30 04:17:02;;;;;;;17.85;16.88;;;3.80;92.10;;;;;;5072325;28;20212;-77
2020/12/30 04:19:29;;;;;;;18.13;17.10;;;3.80;89.30;;;;;;5072230;28;20561;-77
2020/12/30 04:21:55;;;;;;;17.30;16.40;;;3.70;88.30;;;;;;5072658;28;20711;-77
2020/12/30 04:24:22;;;;;;;18.00;17.00;;;3.70;87.90;;;;;;5072330;28;20196;-77
2020/12/30 04:26:48;;;;;;;18.05;16.95;;;3.60;88.80;;;;;;5072349;28;20212;-77
2020/12/30 04:29:15;;;;;;;17.73;16.80;;;3.50;88.40;;;;;;5072792;28;20662;-77
2020/12/30 04:31:41;;;;;;;16.95;16.15;;;3.40;88.80;;;;;;5072627;28;20260;-77
2020/12/30 04:34:08;;;;;;;18.63;17.63;;;3.40;89.60;;;;;;5072650;28;20191;-78
2020/12/30 04:36:34;;;;;;;17.50;16.60;;;3.40;89.00;;;;;;5072447;28;20224;-77
2020/12/30 04:39:01;;;;;;;19.08;17.88;;;3.50;88.10;;;;;;5072621;28;20242;-77
2020/12/30 04:41:33;;;;;;;18.38;17.48;;;3.50;87.70;;;;;;5072878;28;20202;-78
2020/12/30 04:44:01;;;;;;;19.20;18.30;;;3.40;88.10;;;;;;5074784;28;20192;-78
2020/12/30 04:46:28;;;;;;;18.83;17.65;;;3.30;88.20;;;;;;5077051;28;20216;-77
2020/12/30 04:48:56;;;;;;;17.45;16.45;;;3.30;88.60;;;;;;5072218;28;20265;-78
2020/12/30 04:51:24;;;;;;;17.77;16.67;;;3.20;90.80;;;;;;5072587;28;20568;-77
2020/12/30 04:53:53;;;;;;;17.30;16.30;;;3.20;90.30;;;;;;5072903;28;20204;-77
2020/12/30 04:56:38;;;;;;;18.30;17.23;;;3.20;89.70;;;;;;5072450;28;20223;-77
2020/12/30 04:59:07;;;;;;;17.55;16.55;;;3.30;88.90;;;;;;5072445;28;20196;-77
2020/12/30 05:01:38;;;;;;;18.40;17.40;;;3.20;89.10;;;;;;5072479;28;20730;-77
2020/12/30 05:04:06;;;;;;;17.10;16.20;;;3.30;89.90;;;;;;5072589;28;20214;-77
2020/12/30 05:06:33;;;;;;;16.25;15.35;;;3.30;90.50;;;;;;5072264;28;20230;-77
2020/12/30 05:09:01;;;;;;;17.15;16.25;;;3.30;90.20;;;;;;5072292;28;20188;-77
2020/12/30 05:11:27;;;;;;;18.08;16.80;;;3.30;89.60;;;;;;5072259;28;20196;-77
2020/12/30 05:13:55;;;;;;;17.85;16.88;;;3.20;89.00;;;;;;5072614;28;20198;-77
2020/12/30 05:16:21;;;;;;;17.45;16.55;;;3.20;89.20;;;;;;5072006;28;20632;-77
2020/12/30 05:18:49;;;;;;;17.60;16.65;;;3.10;89.80;;;;;;5072293;28;20204;-77
2020/12/30 05:21:16;;;;;;;16.60;15.70;;;3.10;89.80;;;;;;5072442;28;20727;-77
2020/12/30 05:23:44;;;;;;;17.40;16.40;;;3.00;89.90;;;;;;5072307;28;20204;-78
2020/12/30 05:26:10;;;;;;;17.55;16.65;;;3.00;90.30;;;;;;5071683;28;20204;-77
2020/12/30 05:28:37;;;;;;;17.33;16.42;;;2.90;90.30;;;;;;5072120;28;20221;-77
2020/12/30 05:31:05;;;;;;;17.52;16.52;;;3.00;90.20;;;;;;5072203;28;20216;-77
2020/12/30 05:33:31;;;;;;;14.85;14.05;;;3.10;89.90;;;;;;5072385;28;20222;-77
2020/12/30 05:36:00;;;;;;;17.63;16.63;;;3.10;89.90;;;;;;5071998;28;20227;-77
2020/12/30 05:38:29;;;;;;;603.65;80.38;;;3.20;89.60;;;;;;5072132;28;20207;-78
2020/12/30 05:40:56;;;;;;;16.02;15.18;;;3.30;90.40;;;;;;5072247;28;20670;-77
2020/12/30 05:43:22;;;;;;;17.95;16.85;;;3.30;92.00;;;;;;5072232;28;20200;-77
2020/12/30 05:45:50;;;;;;;24.67;20.00;;;3.40;90.60;;;;;;5072614;28;20306;-77
2020/12/30 05:48:23;;;;;;;18.60;17.70;;;3.40;90.50;;;;;;5071894;28;20194;-77
2020/12/30 05:50:50;;;;;;;17.10;16.30;;;3.50;90.40;;;;;;5071769;28;20689;-77
2020/12/30 05:53:17;;;;;;;122.93;29.30;;;3.50;90.40;;;;;;5075384;28;20192;-77
2020/12/30 05:55:44;;;;;;;17.70;16.80;;;3.70;89.60;;;;;;5075446;28;20219;-77
2020/12/30 05:58:13;;;;;;;18.50;17.60;;;3.70;89.00;;;;;;5075106;28;20202;-77
2020/12/30 06:00:40;;;;;;;19.42;18.30;;;3.70;88.40;;;;;;5075625;28;20677;-77
2020/12/30 06:03:07;;;;;;;18.55;17.50;;;3.70;88.00;;;;;;5075559;28;20195;-77
2020/12/30 06:05:34;;;;;;;18.48;17.50;;;3.70;87.40;;;;;;5075100;28;20202;-77
2020/12/30 06:08:01;;;;;;;17.00;16.20;;;3.80;87.50;;;;;;5075102;28;20192;-77
2020/12/30 06:10:28;;;;;;;18.65;17.40;;;3.80;86.60;;;;;;5075212;28;20653;-77
2020/12/30 06:12:58;;;;;;;17.80;16.80;;;3.80;86.30;;;;;;5075260;28;20223;-77
2020/12/30 06:15:25;;;;;;;16.98;16.08;;;3.90;87.00;;;;;;5075196;28;20268;-77
2020/12/30 06:17:57;;;;;;;17.83;16.42;;;4.00;86.10;;;;;;5074823;28;20194;-77
2020/12/30 06:20:30;;;;;;;16.73;15.73;;;4.00;86.00;;;;;;5075022;28;20658;-77
2020/12/30 06:23:00;;;;;;;17.48;16.60;;;3.90;90.10;;;;;;5055265;28;20232;-77
2020/12/30 06:25:27;;;;;;;18.45;17.35;;;3.90;87.10;;;;;;5072352;28;20646;-77
2020/12/30 06:27:55;;;;;;;18.15;17.05;;;4.00;85.40;;;;;;5074860;28;20195;-77
2020/12/30 06:30:23;;;;;;;19.30;18.35;;;4.10;84.90;;;;;;5074952;28;20206;-77
2020/12/30 06:32:50;;;;;;;17.83;16.63;;;4.00;84.80;;;;;;5075102;28;20200;-77
2020/12/30 06:35:25;;;;;;;17.85;16.92;;;3.90;85.80;;;;;;5074745;28;20700;-77
2020/12/30 06:37:52;;;;;;;34.72;19.42;;;3.90;86.50;;;;;;5074405;28;20645;-77
2020/12/30 06:40:24;;;;;;;18.02;16.92;;;3.70;87.60;;;;;;5075020;28;20196;-77
2020/12/30 06:42:58;;;;;;;18.00;16.95;;;3.70;87.00;;;;;;5076794;28;20199;-77
2020/12/30 06:45:51;;;;;;;18.90;17.80;;;3.70;86.30;;;;;;5074167;28;20260;-78
2020/12/30 06:48:20;;;;;;;18.23;17.23;;;3.80;85.50;;;;;;5064991;28;20257;-77
2020/12/30 06:50:47;;;;;;;17.80;16.90;;;3.90;85.20;;;;;;5074250;28;20207;-77
2020/12/30 06:53:23;;;;;;;19.27;18.35;;;3.90;85.10;;;;;;5074524;28;20184;-77
2020/12/30 06:55:51;;;;;;;19.00;18.00;;;4.00;84.70;;;;;;5074241;28;20562;-77
2020/12/30 06:58:50;;;;;;;17.98;16.85;;;3.90;84.80;;;;;;5074488;28;20683;-77
2020/12/30 07:01:18;;;;;;;18.85;17.70;;;3.90;84.80;;;;;;5074153;28;20188;-77
2020/12/30 07:03:45;;;;;;;18.25;17.25;;;3.90;84.70;;;;;;5073916;28;20192;-77
2020/12/30 07:06:29;;;;;;;16.55;15.65;;;3.90;85.20;;;;;;5074196;28;20258;-77
2020/12/30 07:08:57;;;;;;;17.50;16.40;;;3.80;88.10;;;;;;5074446;28;20203;-77
2020/12/30 07:11:45;;;;;;;17.55;16.65;;;3.80;87.20;;;;;;5073946;28;20196;-77
2020/12/30 07:14:13;;;;;;;17.60;16.60;;;3.90;86.00;;;;;;5074252;28;20200;-77
2020/12/30 07:16:41;;;;;;;17.42;16.52;;;3.80;85.80;;;;;;5073218;28;20711;-77
2020/12/30 07:19:12;;;;;;;18.45;17.27;;;3.80;86.40;;;;;;5073638;28;20717;-77
2020/12/30 07:21:50;;;;;;;18.27;17.23;;;3.90;85.80;;;;;;5074076;28;20199;-77
2020/12/30 07:24:20;;;;;;;18.63;17.52;;;3.90;85.50;;;;;;5073900;28;20538;-77
2020/12/30 07:26:54;;;;;;;18.60;17.52;;;3.90;84.90;;;;;;5073385;28;20212;-77
2020/12/30 07:29:20;;;;;;;17.80;16.80;;;3.80;85.20;;;;;;5073873;28;20203;-77
2020/12/30 07:31:49;;;;;;;18.58;17.52;;;3.80;85.30;;;;;;5073698;28;20204;-77
2020/12/30 07:34:17;;;;;;;18.38;17.38;;;3.80;85.60;;;;;;5073834;28;20224;-77
2020/12/30 07:36:45;;;;;;;18.05;16.98;;;4.00;85.20;;;;;;5073109;28;20220;-77
2020/12/30 07:39:11;;;;;;;18.08;16.98;;;4.10;85.00;;;;;;5073236;28;20192;-77
2020/12/30 07:41:42;;;;;;;17.90;16.80;;;4.10;84.80;;;;;;5073064;28;20218;-77
2020/12/30 07:44:09;;;;;;;18.45;17.50;;;4.10;84.60;;;;;;5073384;28;20195;-77
2020/12/30 07:46:37;;;;;;;30.77;19.38;;;4.10;84.70;;;;;;5073330;28;20219;-77
2020/12/30 07:49:14;;;;;;;21.13;18.10;;;4.10;85.00;;;;;;5073191;28;20267;-77
2020/12/30 07:51:50;;;;;;;17.73;16.73;;;4.20;85.20;;;;;;5073026;28;20196;-77
2020/12/30 07:54:18;;;;;;;17.35;16.27;;;4.30;84.40;;;;;;5073319;28;20198;-77
2020/12/30 07:56:45;;;;;;;18.58;17.50;;;4.40;84.30;;;;;;5072995;28;20273;-77
2020/12/30 07:59:19;;;;;;;18.20;17.20;;;4.30;84.20;;;;;;5073194;28;20200;-77
2020/12/30 08:01:53;;;;;;;17.85;16.85;;;4.30;83.60;;;;;;5073079;28;20195;-77
2020/12/30 08:04:20;;;;;;;19.52;18.50;;;4.40;83.50;;;;;;5072994;28;20253;-77
2020/12/30 08:06:47;;;;;;;18.77;17.75;;;4.40;83.60;;;;;;5072621;28;20215;-77
2020/12/30 08:09:14;;;;;;;19.98;18.67;;;4.50;82.90;;;;;;5072831;28;20680;-77
2020/12/30 08:11:47;;;;;;;19.15;17.95;;;4.60;82.40;;;;;;5073067;28;20199;-77
2020/12/30 08:14:15;;;;;;;18.92;17.85;;;4.60;82.60;;;;;;5072146;28;20200;-77
2020/12/30 08:16:51;;;;;;;19.90;18.73;;;4.60;82.50;;;;;;5072403;28;20302;-77
2020/12/30 08:19:30;;;;;;;18.65;17.65;;;4.70;82.50;;;;;;5072998;28;20665;-77
2020/12/30 08:22:07;;;;;;;18.77;17.48;;;4.80;81.90;;;;;;5073147;28;20206;-77
2020/12/30 08:24:36;;;;;;;20.30;19.27;;;4.90;81.50;;;;;;5072620;28;20191;-77
2020/12/30 08:27:03;;;;;;;18.40;17.42;;;5.00;81.40;;;;;;5072859;28;20216;-77
2020/12/30 08:29:32;;;;;;;20.23;19.13;;;5.00;80.60;;;;;;5074186;28;20325;-78
2020/12/30 08:32:02;;;;;;;19.60;18.50;;;5.20;79.60;;;;;;5073120;28;20570;-77
2020/12/30 08:34:35;;;;;;;19.52;18.42;;;5.20;79.70;;;;;;5072666;28;20268;-77
2020/12/30 08:37:04;;;;;;;19.20;18.08;;;5.20;79.80;;;;;;5072788;28;20220;-77
2020/12/30 08:39:31;;;;;;;20.20;18.92;;;5.30;79.50;;;;;;5077304;28;20550;-77
2020/12/30 08:42:00;;;;;;;19.98;18.92;;;5.40;79.20;;;;;;5072879;28;20719;-77
2020/12/30 08:44:26;;;;;;;19.85;18.75;;;5.40;78.80;;;;;;5071334;28;20223;-78
2020/12/30 08:46:57;;;;;;;22.00;20.77;;;5.40;78.50;;;;;;5072278;28;20234;-77
2020/12/30 08:49:25;;;;;;;20.15;19.15;;;5.50;78.60;;;;;;5072337;28;20203;-77
2020/12/30 08:51:52;;;;;;;19.90;18.80;;;5.50;78.50;;;;;;5072640;28;20223;-77
2020/12/30 08:54:19;;;;;;;19.60;18.50;;;5.40;78.80;;;;;;5072459;28;20223;-77
2020/12/30 08:56:46;;;;;;;18.98;17.98;;;5.40;78.70;;;;;;5072205;28;20228;-77
2020/12/30 08:59:23;;;;;;;20.40;19.30;;;5.50;79.10;;;;;;5072563;28;20202;-77
2020/12/30 09:01:49;;;;;;;20.27;19.23;;;5.60;78.70;;;;;;5072436;28;20649;-77
2020/12/30 09:04:17;;;;;;;20.73;19.52;;;5.60;78.50;;;;;;5071918;28;20711;-77
2020/12/30 09:06:50;;;;;;;20.02;18.90;;;5.70;78.80;;;;;;5072217;28;20311;-77
2020/12/30 09:09:19;;;;;;;19.95;18.95;;;5.70;78.80;;;;;;5072298;28;20254;-77
2020/12/30 09:11:47;;;;;;;19.70;18.38;;;5.80;78.00;;;;;;5072416;28;20223;-77
2020/12/30 09:14:17;;;;;;;19.75;18.65;;;5.80;77.60;;;;;;5072007;28;20232;-77
2020/12/30 09:16:58;;;;;;;22.25;20.85;;;5.90;76.90;;;;;;5072093;28;20691;-77
2020/12/30 09:19:25;;;;;;;20.98;19.88;;;6.00;76.30;;;;;;5072219;28;20205;-77
2020/12/30 09:21:52;;;;;;;19.95;18.90;;;6.00;75.60;;;;;;5072243;28;20560;-77
2020/12/30 09:24:18;;;;;;;21.40;20.20;;;6.00;75.60;;;;;;5072109;28;20209;-77
2020/12/30 09:26:45;;;;;;;20.00;19.00;;;5.90;76.00;;;;;;5074614;28;20283;-77
2020/12/30 09:29:18;;;;;;;21.42;20.08;;;6.10;75.90;;;;;;5076024;28;20207;-77
2020/12/30 09:31:52;;;;;;;22.02;20.35;;;6.10;76.20;;;;;;5075829;28;20269;-77
2020/12/30 09:34:19;;;;;;;21.23;19.58;;;6.10;75.70;;;;;;5075900;28;20276;-77
2020/12/30 09:36:57;;;;;;;21.60;20.08;;;6.10;76.20;;;;;;5075534;28;20226;-77
2020/12/30 09:39:26;;;;;;;21.67;20.48;;;6.10;75.70;;;;;;5075868;28;20213;-77
2020/12/30 09:42:01;;;;;;;22.20;20.70;;;6.10;76.00;;;;;;5076044;28;20213;-77
2020/12/30 09:44:27;;;;;;;21.70;20.25;;;6.10;75.50;;;;;;5075312;28;20236;-78
2020/12/30 09:46:55;;;;;;;21.50;20.40;;;6.20;75.90;;;;;;5066973;28;20214;-77
2020/12/30 09:49:22;;;;;;;22.17;20.98;;;6.30;75.40;;;;;;5075468;28;20206;-77
2020/12/30 09:51:55;;;;;;;20.60;19.50;;;6.30;76.10;;;;;;5075993;28;20797;-77
2020/12/30 09:54:21;;;;;;;22.17;20.88;;;6.30;75.70;;;;;;5075592;28;20199;-77
2020/12/30 09:56:51;;;;;;;21.77;20.58;;;6.30;75.70;;;;;;5074980;28;20757;-77
2020/12/30 09:59:21;;;;;;;22.20;20.80;;;6.40;75.70;;;;;;5075595;28;20188;-77
2020/12/30 10:01:48;;;;;;;22.20;21.00;;;6.50;75.30;;;;;;5074943;28;20206;-77
2020/12/30 10:04:14;;;;;;;21.48;20.13;;;6.50;75.00;;;;;;5075405;28;20552;-77
2020/12/30 10:06:45;;;;;;;21.20;20.10;;;6.60;76.30;;;;;;5075002;28;20715;-77
2020/12/30 10:09:15;;;;;;;21.27;19.88;;;6.50;75.00;;;;;;5075590;28;20203;-77
2020/12/30 10:11:41;;;;;;;21.08;19.85;;;6.50;75.10;;;;;;5074950;28;20278;-77
2020/12/30 10:14:08;;;;;;;22.35;21.08;;;6.50;75.00;;;;;;5075728;28;20194;-77
2020/12/30 10:16:34;;;;;;;22.20;20.80;;;6.60;75.00;;;;;;5075277;28;20222;-77
2020/12/30 10:19:01;;;;;;;20.98;19.75;;;6.60;75.10;;;;;;5075303;28;20207;-77
2020/12/30 10:21:36;;;;;;;22.48;21.17;;;6.50;75.00;;;;;;5075125;28;20615;-77
2020/12/30 10:24:03;;;;;;;21.30;20.10;;;6.50;75.40;;;;;;5065780;28;20945;-77
2020/12/30 10:26:32;;;;;;;20.95;19.67;;;6.60;74.80;;;;;;5075219;28;20353;-77
2020/12/30 10:28:58;;;;;;;21.35;20.15;;;6.70;74.60;;;;;;5075074;28;20202;-77
2020/12/30 10:31:24;;;;;;;22.15;20.85;;;6.70;73.80;;;;;;5074652;28;20207;-77
2020/12/30 10:33:53;;;;;;;21.42;20.13;;;6.60;74.30;;;;;;5078798;28;20253;-77
2020/12/30 10:36:21;;;;;;;21.98;20.30;;;6.70;74.50;;;;;;5077824;28;20227;-77
2020/12/30 10:38:47;;;;;;;21.73;20.38;;;6.80;74.30;;;;;;5074093;28;20427;-77
2020/12/30 10:41:17;;;;;;;21.40;19.98;;;6.80;73.50;;;;;;5074518;28;20260;-77
2020/12/30 10:43:45;;;;;;;22.35;21.10;;;6.90;73.60;;;;;;5074083;28;20282;-77
2020/12/30 10:46:12;;;;;;;22.77;21.58;;;6.90;73.20;;;;;;5074594;28;20212;-77
2020/12/30 10:48:41;;;;;;;21.98;20.55;;;7.10;73.00;;;;;;5074685;28;20204;-77
2020/12/30 10:51:10;;;;;;;22.30;21.10;;;7.20;73.20;;;;;;5074297;28;20200;-77
2020/12/30 10:53:37;;;;;;;21.50;20.30;;;7.30;73.20;;;;;;5074286;28;20531;-77
2020/12/30 10:56:04;;;;;;;21.52;20.25;;;7.30;71.20;;;;;;5074360;28;20234;-77
2020/12/30 10:58:30;;;;;;;21.92;20.75;;;7.20;72.10;;;;;;5074424;28;20565;-77
2020/12/30 11:00:57;;;;;;;22.15;20.95;;;7.30;72.30;;;;;;5074343;28;20188;-77
2020/12/30 11:03:24;;;;;;;21.88;20.67;;;7.40;70.80;;;;;;5074401;28;20272;-77
2020/12/30 11:05:50;;;;;;;22.08;20.60;;;7.40;70.80;;;;;;5074128;28;20290;-77
2020/12/30 11:08:16;;;;;;;22.45;21.23;;;7.50;70.70;;;;;;5074196;28;20249;-77
2020/12/30 11:10:43;;;;;;;22.42;21.27;;;7.50;70.60;;;;;;5074345;28;20199;-77
2020/12/30 11:13:12;;;;;;;21.85;20.65;;;7.40;74.00;;;;;;5074271;28;20203;-77
2020/12/30 11:15:38;;;;;;;23.75;22.55;;;7.50;71.60;;;;;;5073608;28;20306;-77
2020/12/30 11:18:05;;;;;;;22.20;21.00;;;7.50;71.40;;;;;;5073982;28;20287;-77
2020/12/30 11:20:32;;;;;;;22.50;21.10;;;7.70;70.60;;;;;;5074081;28;20243;-77
2020/12/30 11:22:58;;;;;;;23.17;21.60;;;7.70;70.80;;;;;;5074108;28;20621;-77
2020/12/30 11:25:24;;;;;;;25.33;23.48;;;7.60;72.20;;;;;;5073823;28;20611;-77
2020/12/30 11:27:51;;;;;;;23.40;21.33;;;7.70;71.70;;;;;;5073447;28;20286;-77
2020/12/30 11:30:19;;;;;;;24.80;22.15;;;7.80;70.80;;;;;;5073892;28;20202;-77
2020/12/30 11:32:45;;;;;;;21.85;20.58;;;7.80;71.00;;;;;;5074034;28;20731;-77
2020/12/30 11:35:13;;;;;;;24.67;22.95;;;7.90;73.10;;;;;;5073883;28;20207;-77
2020/12/30 11:37:40;;;;;;;24.02;21.73;;;8.00;71.60;;;;;;5073181;28;20242;-77
2020/12/30 11:40:06;;;;;;;22.08;20.77;;;8.10;71.00;;;;;;5073552;28;20257;-77
2020/12/30 11:42:33;;;;;;;22.95;21.50;;;8.20;71.70;;;;;;5073742;28;20202;-77
2020/12/30 11:44:59;;;;;;;22.80;21.50;;;8.20;72.10;;;;;;5073268;28;20200;-77
2020/12/30 11:47:26;;;;;;;23.05;21.33;;;8.00;70.00;;;;;;5073039;28;20207;-77
2020/12/30 11:49:53;;;;;;;21.85;20.65;;;8.00;70.00;;;;;;5072576;28;20353;-77
2020/12/30 11:52:20;;;;;;;22.70;21.15;;;8.00;69.70;;;;;;5073397;28;20557;-77
2020/12/30 11:54:46;;;;;;;22.63;21.23;;;8.00;70.00;;;;;;5073424;28;20218;-77
2020/12/30 11:57:13;;;;;;;24.42;21.92;;;8.00;70.20;;;;;;5072903;28;20293;-77
2020/12/30 11:59:39;;;;;;;24.13;22.33;;;8.10;70.30;;;;;;5072976;28;20275;-77
2020/12/30 12:02:05;;;;;;;22.35;20.90;;;8.10;70.50;;;;;;5073124;28;20192;-77
2020/12/30 12:04:33;;;;;;;46.65;22.55;;;8.00;70.40;;;;;;5073206;28;20192;-77
2020/12/30 12:06:59;;;;;;;23.17;21.63;;;8.00;70.70;;;;;;5072695;28;20211;-77
2020/12/30 12:09:27;;;;;;;27.67;24.98;;;8.00;71.30;;;;;;5073125;28;20265;-77
2020/12/30 12:11:54;;;;;;;22.65;21.25;;;8.00;72.50;;;;;;5073219;28;20194;-77
2020/12/30 12:14:21;;;;;;;23.33;22.02;;;8.00;72.20;;;;;;5073033;28;20196;-77
2020/12/30 12:16:51;;;;;;;22.05;20.75;;;7.90;72.50;;;;;;5072488;28;20216;-77
2020/12/30 12:19:18;;;;;;;24.17;22.65;;;7.90;72.20;;;;;;5072754;28;20198;-77
2020/12/30 12:21:44;;;;;;;23.13;21.75;;;7.80;71.90;;;;;;5072981;28;20207;-77
2020/12/30 12:24:11;;;;;;;22.20;21.00;;;7.80;72.50;;;;;;5072668;28;20557;-77
2020/12/30 12:26:39;;;;;;;22.08;20.75;;;7.80;71.90;;;;;;5072720;28;20294;-77
2020/12/30 12:29:47;;;;;;;21.92;20.73;;;7.80;71.70;;;;;;5073269;28;20684;-77
2020/12/30 12:32:15;;;;;;;22.35;21.15;;;7.80;71.60;;;;;;5031479;28;20197;-77
2020/12/30 12:34:42;;;;;;;22.50;21.30;;;7.70;73.00;;;;;;5067441;28;20204;-77
2020/12/30 12:37:10;;;;;;;22.20;20.90;;;7.70;74.00;;;;;;5072504;28;20732;-77
2020/12/30 12:39:38;;;;;;;22.95;21.65;;;7.70;75.50;;;;;;5072455;28;20240;-77
2020/12/30 12:42:06;;;;;;;22.33;21.02;;;7.80;72.30;;;;;;5072702;28;20722;-77